Portada
METAR-TAF:

METAR-TAF

Aeroports :

Lampang, Tailàndia

latitud: 18-17N, longitud: 099-31E, altitud: 241 m

Observació

L'informe es va fer fa 10 hores i 51 minuts, a les 12:00 UTC
Vent 4 kt del Sud/Sud-Est, variant entre Est/Sud-Est i Sud
Temperatura 30°C
Humitat 27%
Pressió 1010 hPa
Visibilitat: 9000 m

METAR: VTCL 011200Z 15004KT 120V180 9000 NSC 30/09 Q1010 NOSIG

Hora: 05:51 (22:51 UTC)

Pronòstic

L'informe es va fer fa 5 hores i 51 minuts, a les 17:00 UTC
Pronòstic vàlid del 01 a les 18 UTC al 02 a les 18 UTC
Vent 5 kt del Sud/Sud-Est
Visibilitat: 9000 m
Evolucionant progressivament
l' 01 a les 23 UTC al 02 a les 01 UTC
Vent kt del Nord
Visibilitat: 3000 m
boirina
Evolucionant progressivament
l' 02 a les 03 UTC al 02 a les 05 UTC
Vent 5 kt del Sud/Sud-Oest
Visibilitat: 8000 m

TAF: VTCL 011700Z 0118/0218 16005KT 9000 NSC BECMG 0123/0201 00000KT 3000 BR BECMG 0203/0205 20005KT 8000 NSW

Observacions i pronòstics meteorològics de més de 4000 aeroports (METAR i TAF).

Les estacions disponibles són els punts grocs i vermells al mapa.

Posi el ratolí al punt desitjat per veure el nom de l'estació.

Feu clic per veure les observacions i els pronòstics meteorològics.

Per canviar el mapa: feu clic els botons verds amb una creu de color negre per apropar; al botó verd amb un guió per allunyar la imatge; o en les fletxes verdes per a mapes adjacents.


METAR-TAF: